Time;durP1;ratioP1;P1;durP2;ratioP2;P2;SDS_P1;SDS_P2;PMS_P1;PMS_P2;Temp;Humidity;BMP_temperature;BMP_pressure;BME280_temperature;BME280_humidity;BME280_pressure;Samples;Min_cycle;Max_cycle;Signal;HPM_P1;HPM_P2
2021/05/01 04:02:23;;;;;;;21.47;18.40;;;5.50;96.30;;;;;;5028293;23;20507;-80
2021/05/01 04:04:48;;;;;;;17.47;15.77;;;5.50;96.30;;;;;;4940549;29;20495;-80
2021/05/01 04:07:14;;;;;;;18.73;16.73;;;5.50;96.30;;;;;;4931998;29;20191;-80
2021/05/01 04:09:40;;;;;;;20.30;17.43;;;5.50;96.30;;;;;;4917626;29;20271;-80
2021/05/01 04:12:06;;;;;;;24.97;17.37;;;5.50;96.30;;;;;;4903998;29;20232;-80
2021/05/01 04:14:31;;;;;;;21.77;17.60;;;5.50;96.30;;;;;;4900345;29;20577;-80
2021/05/01 04:16:57;;;;;;;21.50;18.17;;;5.50;96.30;;;;;;4900989;29;20421;-80
2021/05/01 04:19:22;;;;;;;18.97;16.97;;;5.60;96.30;;;;;;4900057;29;20228;-80
2021/05/01 04:21:48;;;;;;;19.20;16.07;;;5.60;96.30;;;;;;4900760;29;20705;-80
2021/05/01 04:24:13;;;;;;;19.07;16.50;;;5.60;96.30;;;;;;4901176;29;20177;-80
2021/05/01 04:26:39;;;;;;;22.40;16.67;;;5.60;96.30;;;;;;4899174;29;20180;-80
2021/05/01 04:29:05;;;;;;;19.37;16.37;;;5.60;96.30;;;;;;4900459;29;20173;-80
2021/05/01 04:31:31;;;;;;;19.23;16.27;;;5.60;96.30;;;;;;4899301;29;20535;-79
2021/05/01 04:33:56;;;;;;;21.47;17.27;;;5.60;96.30;;;;;;4901377;29;20192;-80
2021/05/01 04:36:22;;;;;;;20.73;16.87;;;5.60;96.30;;;;;;4900847;29;20172;-80
2021/05/01 04:38:47;;;;;;;20.60;17.53;;;5.60;96.30;;;;;;4900804;29;20169;-80
2021/05/01 04:41:13;;;;;;;20.30;18.10;;;5.60;96.30;;;;;;4904637;29;20204;-80
2021/05/01 04:43:41;;;;;;;21.30;17.73;;;5.60;96.30;;;;;;4899395;29;20208;-80
2021/05/01 04:46:06;;;;;;;18.90;16.00;;;5.60;96.30;;;;;;4914282;29;20172;-80
2021/05/01 04:48:32;;;;;;;28.23;18.47;;;5.60;96.30;;;;;;4902708;29;20627;-80
2021/05/01 04:50:58;;;;;;;19.50;16.90;;;5.60;96.30;;;;;;4917939;29;20552;-80
2021/05/01 04:53:23;;;;;;;19.27;17.23;;;5.70;96.30;;;;;;4916311;29;20745;-80
2021/05/01 04:55:49;;;;;;;27.37;20.70;;;5.80;96.30;;;;;;4912469;29;20268;-80
2021/05/01 04:58:14;;;;;;;22.00;18.90;;;5.80;96.30;;;;;;4911638;29;20233;-80
2021/05/01 05:00:40;;;;;;;24.80;18.77;;;5.80;96.30;;;;;;4908066;29;20220;-80
2021/05/01 05:03:06;;;;;;;21.63;18.37;;;5.80;96.30;;;;;;4903935;29;20184;-80
2021/05/01 05:05:32;;;;;;;24.33;20.20;;;5.90;96.30;;;;;;4911955;29;20181;-80
2021/05/01 05:07:57;;;;;;;23.40;19.20;;;5.90;96.30;;;;;;4899645;29;20181;-80
2021/05/01 05:10:23;;;;;;;22.10;18.97;;;5.90;96.30;;;;;;4905873;29;20203;-80
2021/05/01 05:12:48;;;;;;;21.93;19.63;;;5.80;96.30;;;;;;4918282;29;20176;-80
2021/05/01 05:15:14;;;;;;;20.13;17.77;;;5.80;96.30;;;;;;4916744;29;20637;-80
2021/05/01 05:17:40;;;;;;;22.73;18.97;;;5.90;96.30;;;;;;4917649;29;20264;-80
2021/05/01 05:20:06;;;;;;;22.43;18.03;;;5.90;96.30;;;;;;4918178;29;20196;-80
2021/05/01 05:22:32;;;;;;;19.93;17.40;;;6.00;96.30;;;;;;4918547;29;20223;-80
2021/05/01 05:24:58;;;;;;;23.00;18.07;;;6.10;96.30;;;;;;4918390;29;20906;-80
2021/05/01 05:27:24;;;;;;;20.70;18.50;;;6.20;96.30;;;;;;4918212;29;20451;-80
2021/05/01 05:29:50;;;;;;;24.07;19.80;;;6.30;96.30;;;;;;4919437;29;20205;-80
2021/05/01 05:32:23;;;;;;;26.00;18.73;;;6.40;96.30;;;;;;4921658;29;20246;-80
2021/05/01 05:34:50;;;;;;;23.87;20.80;;;6.50;96.30;;;;;;4922717;29;20963;-80
2021/05/01 05:37:16;;;;;;;22.23;19.83;;;6.70;96.30;;;;;;4921587;29;20503;-80
2021/05/01 05:39:44;;;;;;;22.27;19.60;;;6.80;96.30;;;;;;4920588;29;20515;-80
2021/05/01 05:42:11;;;;;;;21.30;18.77;;;6.90;96.30;;;;;;4919984;29;20204;-82
2021/05/01 05:44:38;;;;;;;21.70;18.47;;;7.00;96.30;;;;;;4919090;29;20428;-83
2021/05/01 05:47:04;;;;;;;20.30;17.60;;;7.00;96.30;;;;;;4916124;29;20487;-83
2021/05/01 05:49:29;;;;;;;20.40;18.33;;;7.00;96.30;;;;;;4920950;29;20479;-83
2021/05/01 05:51:55;;;;;;;19.60;17.33;;;7.20;96.30;;;;;;4918490;29;20216;-84
2021/05/01 05:54:21;;;;;;;33.23;23.23;;;7.30;96.30;;;;;;4920271;29;20182;-83
2021/05/01 05:56:47;;;;;;;23.70;20.83;;;7.40;96.30;;;;;;4919652;29;21053;-83
2021/05/01 05:59:12;;;;;;;22.53;20.10;;;7.50;96.30;;;;;;4897175;29;20234;-83
2021/05/01 06:01:39;;;;;;;21.50;18.93;;;7.70;96.30;;;;;;4955425;29;20509;-82
2021/05/01 06:04:13;;;;;;;22.57;18.77;;;7.70;96.30;;;;;;4955913;28;20782;-84
2021/05/01 06:06:44;;;;;;;19.47;17.20;;;7.80;96.30;;;;;;4955832;29;20406;-83
2021/05/01 06:09:11;;;;;;;23.80;19.20;;;7.90;96.30;;;;;;4955264;28;20469;-83
2021/05/01 06:11:37;;;;;;;18.90;16.90;;;7.90;96.30;;;;;;4941177;29;20467;-81
2021/05/01 06:14:04;;;;;;;18.27;16.27;;;8.00;96.30;;;;;;4941130;29;20477;-81
2021/05/01 06:16:31;;;;;;;21.37;15.67;;;8.10;96.30;;;;;;4956894;29;20447;-83
2021/05/01 06:18:57;;;;;;;25.20;15.87;;;8.00;96.30;;;;;;4942517;28;20550;-82
2021/05/01 06:21:23;;;;;;;19.50;16.13;;;8.10;96.30;;;;;;4943570;29;20446;-81
2021/05/01 06:23:49;;;;;;;22.37;17.90;;;8.20;96.30;;;;;;4959529;29;20414;-82
2021/05/01 06:26:15;;;;;;;21.47;16.27;;;8.30;96.30;;;;;;4944484;29;20194;-82
2021/05/01 06:28:41;;;;;;;18.70;15.77;;;8.30;96.30;;;;;;4949789;28;20184;-81
2021/05/01 06:31:07;;;;;;;17.00;14.80;;;8.20;96.30;;;;;;4913720;29;20473;-82
2021/05/01 06:33:38;;;;;;;17.90;16.00;;;8.20;96.30;;;;;;4906645;29;20909;-82
2021/05/01 06:36:05;;;;;;;16.67;14.80;;;8.10;96.30;;;;;;4920465;29;20425;-82
2021/05/01 06:38:32;;;;;;;18.47;14.93;;;8.20;96.30;;;;;;4908334;29;20470;-83
2021/05/01 06:41:03;;;;;;;17.63;15.30;;;8.30;96.30;;;;;;4921944;29;20436;-82
2021/05/01 06:43:51;;;;;;;15.97;14.27;;;8.40;96.30;;;;;;4918971;29;20409;-82
2021/05/01 06:46:19;;;;;;;16.27;14.43;;;8.50;96.30;;;;;;4919789;29;20408;-83
2021/05/01 06:48:53;;;;;;;16.20;14.03;;;8.60;96.30;;;;;;4918433;29;20837;-82
2021/05/01 06:51:19;;;;;;;15.33;13.73;;;8.70;96.30;;;;;;4919750;29;20470;-82
2021/05/01 06:53:44;;;;;;;16.57;14.77;;;8.50;96.30;;;;;;4920171;29;20511;-82
2021/05/01 06:56:13;;;;;;;16.80;14.37;;;8.50;96.30;;;;;;4919478;29;20173;-82
2021/05/01 06:58:39;;;;;;;17.70;13.47;;;8.70;96.30;;;;;;4918325;29;20180;-81
2021/05/01 07:01:09;;;;;;;16.30;13.33;;;8.90;96.30;;;;;;4919592;29;20468;-83
2021/05/01 07:03:47;;;;;;;15.93;13.97;;;9.00;96.30;;;;;;4919021;29;20428;-82
2021/05/01 07:06:18;;;;;;;15.60;13.33;;;9.10;96.30;;;;;;4920835;29;20452;-82
2021/05/01 07:08:44;;;;;;;14.37;12.20;;;9.30;96.30;;;;;;4921436;29;20420;-82
2021/05/01 07:11:11;;;;;;;16.50;13.23;;;9.30;96.30;;;;;;4920223;29;20551;-82
2021/05/01 07:13:38;;;;;;;13.83;11.67;;;9.60;96.30;;;;;;4918538;29;20457;-82
2021/05/01 07:16:06;;;;;;;15.80;12.00;;;10.00;96.30;;;;;;4916948;29;20436;-82
2021/05/01 07:18:32;;;;;;;15.60;12.00;;;10.20;96.30;;;;;;4918117;29;20412;-82
2021/05/01 07:20:59;;;;;;;11.97;10.70;;;10.30;96.30;;;;;;4919509;29;20466;-82
2021/05/01 07:23:25;;;;;;;12.93;11.50;;;10.30;96.30;;;;;;4924299;29;20308;-82
2021/05/01 07:25:51;;;;;;;13.70;12.20;;;10.40;96.30;;;;;;4937420;29;20462;-82
2021/05/01 07:28:24;;;;;;;13.97;11.77;;;10.50;96.30;;;;;;4917845;29;20420;-82
2021/05/01 07:30:54;;;;;;;17.40;12.40;;;9.90;96.30;;;;;;4916256;29;20219;-83
2021/05/01 07:33:36;;;;;;;12.83;11.67;;;10.10;96.30;;;;;;4915949;29;20468;-83
2021/05/01 07:36:07;;;;;;;13.90;10.93;;;10.30;96.30;;;;;;4915716;29;20413;-83
2021/05/01 07:38:33;;;;;;;13.70;12.30;;;10.60;96.30;;;;;;4915227;29;20420;-83
2021/05/01 07:41:01;;;;;;;12.97;11.67;;;11.10;96.30;;;;;;4917049;29;20781;-84
2021/05/01 07:43:29;;;;;;;11.70;10.50;;;11.30;96.30;;;;;;4916939;29;20649;-82
2021/05/01 07:45:57;;;;;;;15.87;11.57;;;11.30;96.30;;;;;;4917729;29;20867;-82
2021/05/01 07:48:25;;;;;;;14.40;12.43;;;11.30;96.30;;;;;;4927731;29;20416;-81
2021/05/01 07:50:51;;;;;;;13.23;11.23;;;11.80;96.30;;;;;;4939213;29;20487;-82
2021/05/01 07:53:16;;;;;;;15.30;12.77;;;11.80;96.30;;;;;;4925327;29;20456;-83
2021/05/01 07:55:43;;;;;;;13.03;11.73;;;12.30;96.30;;;;;;4907338;29;20200;-84
2021/05/01 07:58:09;;;;;;;14.13;12.20;;;11.90;96.30;;;;;;4916945;29;20192;-83
2021/05/01 08:00:35;;;;;;;13.43;12.10;;;13.00;96.30;;;;;;4917835;29;20443;-83
2021/05/01 08:03:01;;;;;;;14.93;12.93;;;13.60;96.30;;;;;;4918414;29;20492;-82
2021/05/01 08:05:27;;;;;;;13.97;12.57;;;13.90;96.30;;;;;;4913333;29;20783;-81
2021/05/01 08:07:53;;;;;;;13.03;11.73;;;14.10;96.30;;;;;;4919476;29;20425;-82
2021/05/01 08:10:19;;;;;;;11.30;10.20;;;15.40;92.50;;;;;;4912745;29;20212;-82
2021/05/01 08:12:44;;;;;;;11.43;10.33;;;16.10;87.20;;;;;;4919032;29;20180;-82
2021/05/01 08:15:10;;;;;;;12.30;11.10;;;16.90;84.50;;;;;;4918028;29;20424;-82
2021/05/01 08:17:38;;;;;;;12.10;10.80;;;16.00;83.70;;;;;;4916146;29;20222;-83
2021/05/01 08:20:05;;;;;;;10.83;9.70;;;16.10;87.40;;;;;;4916969;29;20471;-83
2021/05/01 08:22:30;;;;;;;10.93;9.93;;;15.60;86.50;;;;;;4909075;29;20449;-82
2021/05/01 08:24:56;;;;;;;13.07;11.80;;;15.40;87.30;;;;;;4909838;29;20468;-80
2021/05/01 08:27:21;;;;;;;12.23;10.70;;;15.50;86.80;;;;;;4903454;29;20191;-80
2021/05/01 08:29:47;;;;;;;16.53;10.90;;;15.10;85.80;;;;;;4909653;29;20803;-81
2021/05/01 08:32:14;;;;;;;11.83;10.73;;;14.90;88.60;;;;;;4903717;29;20215;-80
2021/05/01 08:34:40;;;;;;;12.90;11.70;;;15.10;89.50;;;;;;4918366;29;20180;-80
2021/05/01 08:37:05;;;;;;;13.00;11.70;;;15.50;88.90;;;;;;4916881;29;20956;-81
2021/05/01 08:39:31;;;;;;;10.47;9.47;;;14.90;90.80;;;;;;4931738;29;20436;-81
2021/05/01 08:41:57;;;;;;;10.30;9.33;;;15.40;85.90;;;;;;4915571;29;20259;-80
2021/05/01 08:44:22;;;;;;;13.20;9.70;;;15.10;84.50;;;;;;4917483;29;20216;-81
2021/05/01 08:46:49;;;;;;;11.53;9.63;;;14.70;84.60;;;;;;4918557;29;20231;-81
2021/05/01 08:49:14;;;;;;;11.07;9.97;;;14.00;89.40;;;;;;4917180;29;20223;-81
2021/05/01 08:51:42;;;;;;;10.50;9.40;;;14.10;88.10;;;;;;4917961;29;20480;-81
2021/05/01 08:54:14;;;;;;;11.10;10.00;;;13.40;89.10;;;;;;4917422;29;20177;-81
2021/05/01 08:56:41;;;;;;;11.13;10.03;;;13.30;91.50;;;;;;4917329;29;20516;-82
2021/05/01 08:59:07;;;;;;;12.70;11.50;;;14.20;94.90;;;;;;4915836;29;20431;-81
2021/05/01 09:01:36;;;;;;;14.63;11.07;;;14.60;94.30;;;;;;4913975;29;20468;-81
2021/05/01 09:04:07;;;;;;;11.47;10.27;;;14.40;89.50;;;;;;4913284;29;20199;-81
2021/05/01 09:06:33;;;;;;;12.37;11.17;;;13.90;91.50;;;;;;4915911;29;20424;-81
2021/05/01 09:09:06;;;;;;;14.93;11.17;;;13.40;92.70;;;;;;4918150;29;20479;-82
2021/05/01 09:11:43;;;;;;;12.63;11.33;;;13.20;94.50;;;;;;4917802;29;21268;-81
2021/05/01 09:14:15;;;;;;;13.93;10.17;;;13.00;92.40;;;;;;4919726;29;20443;-81
2021/05/01 09:16:42;;;;;;;15.60;11.50;;;12.90;95.10;;;;;;4920041;29;20434;-81
2021/05/01 09:19:09;;;;;;;11.93;10.30;;;13.10;95.40;;;;;;4916464;29;20427;-81
2021/05/01 09:21:34;;;;;;;11.37;10.20;;;13.00;92.40;;;;;;4917979;29;20809;-80
2021/05/01 09:24:02;;;;;;;12.93;11.53;;;12.50;93.10;;;;;;4923847;29;20443;-80
2021/05/01 09:26:35;;;;;;;12.33;10.10;;;12.30;95.20;;;;;;4917017;29;20206;-81
2021/05/01 09:29:01;;;;;;;13.60;12.17;;;12.40;95.30;;;;;;4917428;29;20798;-81
2021/05/01 09:31:41;;;;;;;12.43;11.20;;;12.40;96.30;;;;;;4917709;29;20468;-81
2021/05/01 09:34:07;;;;;;;11.40;10.30;;;12.50;95.50;;;;;;4917454;29;20920;-81
2021/05/01 09:36:33;;;;;;;11.70;10.37;;;12.30;96.30;;;;;;4917710;29;20470;-81
2021/05/01 09:38:59;;;;;;;11.33;10.13;;;11.90;96.30;;;;;;4921131;29;20420;-81
2021/05/01 09:41:27;;;;;;;12.83;11.43;;;11.90;96.30;;;;;;4925757;29;20826;-80
2021/05/01 09:44:07;;;;;;;11.10;10.00;;;11.90;96.30;;;;;;4925329;29;20468;-81
2021/05/01 09:46:38;;;;;;;14.93;11.43;;;12.30;96.30;;;;;;4923142;29;20439;-81
2021/05/01 09:49:09;;;;;;;12.57;11.27;;;12.60;95.70;;;;;;4918024;29;20417;-80
2021/05/01 09:51:54;;;;;;;13.43;12.07;;;12.10;96.30;;;;;;4919078;29;20468;-81
2021/05/01 09:54:31;;;;;;;12.73;11.53;;;12.30;96.30;;;;;;4917814;29;20491;-82
2021/05/01 09:57:01;;;;;;;12.83;11.37;;;12.40;95.10;;;;;;4916916;29;20423;-82
2021/05/01 09:59:42;;;;;;;17.23;11.63;;;12.50;96.30;;;;;;4917862;29;20919;-82
2021/05/01 10:02:10;;;;;;;11.47;10.30;;;12.40;94.80;;;;;;4896175;29;508271;-82
2021/05/01 10:04:37;;;;;;;15.13;11.50;;;12.30;96.30;;;;;;4917754;29;20196;-82
2021/05/01 10:07:06;;;;;;;13.13;11.77;;;12.40;95.40;;;;;;4921335;29;20420;-82
2021/05/01 10:09:39;;;;;;;13.10;10.83;;;12.70;94.00;;;;;;4921641;29;20444;-82
2021/05/01 10:12:08;;;;;;;12.90;11.57;;;13.00;96.30;;;;;;4919755;29;20472;-82
2021/05/01 10:14:52;;;;;;;12.50;10.97;;;13.30;94.50;;;;;;4938712;29;20451;-82
2021/05/01 10:17:21;;;;;;;11.77;10.67;;;13.70;90.30;;;;;;4936946;29;20914;-81
2021/05/01 10:19:53;;;;;;;13.17;11.90;;;13.00;92.70;;;;;;4937576;29;20517;-82
2021/05/01 10:22:24;;;;;;;13.47;12.00;;;13.00;96.30;;;;;;4936129;29;20543;-82
2021/05/01 10:24:50;;;;;;;15.77;11.17;;;13.20;94.20;;;;;;4929915;29;20440;-82
2021/05/01 10:27:18;;;;;;;12.00;10.80;;;13.50;90.80;;;;;;4936075;29;20427;-82
2021/05/01 10:29:45;;;;;;;13.10;10.97;;;13.40;91.40;;;;;;4937841;29;20423;-82
2021/05/01 10:32:16;;;;;;;11.50;10.30;;;13.10;94.40;;;;;;4913099;29;20886;-81
2021/05/01 10:34:45;;;;;;;11.50;10.30;;;13.50;94.10;;;;;;4917653;29;20456;-82
2021/05/01 10:37:14;;;;;;;13.50;10.87;;;13.90;95.00;;;;;;4917573;29;20484;-81
2021/05/01 10:39:44;;;;;;;10.93;9.73;;;14.20;94.20;;;;;;4917941;29;20978;-82
2021/05/01 10:42:13;;;;;;;11.07;9.83;;;14.10;92.10;;;;;;4919086;29;20479;-81
2021/05/01 10:44:40;;;;;;;10.63;9.63;;;13.80;90.20;;;;;;4924943;29;20428;-81
2021/05/01 10:47:10;;;;;;;14.27;10.13;;;13.00;92.30;;;;;;4924110;29;20488;-81
2021/05/01 10:49:36;;;;;;;16.27;9.97;;;13.00;94.10;;;;;;4913891;29;20775;-81
2021/05/01 10:52:19;;;;;;;12.20;11.00;;;13.20;93.30;;;;;;4919300;29;20480;-81
2021/05/01 10:55:05;;;;;;;10.83;9.83;;;14.00;94.30;;;;;;4934530;29;20426;-82
2021/05/01 10:57:32;;;;;;;12.03;10.73;;;14.20;91.00;;;;;;4909836;29;20464;-81
2021/05/01 11:00:04;;;;;;;13.17;11.17;;;14.00;92.40;;;;;;4934511;29;20506;-81
2021/05/01 11:02:40;;;;;;;14.10;12.43;;;14.00;92.80;;;;;;4904257;29;20468;-81
2021/05/01 11:05:09;;;;;;;12.57;11.27;;;13.60;95.70;;;;;;4919765;29;20419;-81
2021/05/01 11:08:04;;;;;;;12.40;11.20;;;13.30;95.10;;;;;;4933693;29;20458;-81
2021/05/01 11:10:33;;;;;;;13.97;12.63;;;13.10;95.50;;;;;;4900463;29;20516;-81
2021/05/01 11:13:02;;;;;;;14.20;12.70;;;12.90;95.40;;;;;;4920624;29;20462;-81
2021/05/01 11:15:40;;;;;;;15.73;12.70;;;12.90;94.80;;;;;;4926790;29;20506;-81
2021/05/01 11:18:07;;;;;;;14.00;12.50;;;12.80;93.30;;;;;;4923772;29;20448;-80
2021/05/01 11:20:34;;;;;;;15.50;12.57;;;12.40;94.90;;;;;;4922891;29;20431;-80
2021/05/01 11:23:00;;;;;;;19.90;13.83;;;12.30;94.80;;;;;;4934315;29;20419;-81
2021/05/01 11:25:27;;;;;;;11.90;10.80;;;12.40;95.00;;;;;;4938830;29;20427;-81
2021/05/01 11:27:55;;;;;;;13.73;12.40;;;12.40;94.70;;;;;;4927328;29;20420;-80
2021/05/01 11:30:26;;;;;;;14.20;12.70;;;12.20;95.40;;;;;;4920889;29;20492;-81
2021/05/01 11:32:53;;;;;;;15.07;12.90;;;12.30;94.90;;;;;;4931005;29;20966;-81
2021/05/01 11:35:24;;;;;;;14.20;12.70;;;12.60;94.20;;;;;;4935352;29;20420;-79
2021/05/01 11:37:51;;;;;;;14.00;12.60;;;12.60;93.70;;;;;;4917048;29;20934;-78
2021/05/01 11:40:19;;;;;;;15.07;12.93;;;12.50;94.10;;;;;;4910036;29;20498;-78
2021/05/01 11:42:45;;;;;;;14.07;12.57;;;12.40;94.10;;;;;;4919487;29;20579;-78
2021/05/01 11:45:34;;;;;;;17.07;12.43;;;12.40;96.10;;;;;;4926187;29;20636;-78
2021/05/01 11:48:03;;;;;;;14.37;12.87;;;12.60;94.90;;;;;;4933023;29;20408;-79
2021/05/01 11:50:29;;;;;;;15.53;13.13;;;12.40;95.20;;;;;;4918667;29;20435;-78
2021/05/01 11:53:36;;;;;;;13.70;12.17;;;12.30;96.10;;;;;;4918804;29;20432;-78
2021/05/01 11:56:19;;;;;;;16.07;13.70;;;12.50;95.40;;;;;;4924579;29;20529;-78
2021/05/01 11:58:44;;;;;;;15.10;13.47;;;12.40;96.30;;;;;;4936072;29;20431;-78
2021/05/01 12:01:32;;;;;;;17.87;14.50;;;12.20;96.10;;;;;;4937736;29;20455;-78
2021/05/01 12:04:03;;;;;;;15.03;13.43;;;12.00;96.30;;;;;;4930665;29;20176;-78
2021/05/01 12:06:28;;;;;;;15.63;13.93;;;11.80;96.30;;;;;;4918149;29;20519;-78
2021/05/01 12:09:03;;;;;;;15.23;13.63;;;11.60;96.30;;;;;;4918967;29;20459;-78
2021/05/01 12:11:30;;;;;;;15.73;12.20;;;11.50;96.30;;;;;;4935221;29;20203;-78
2021/05/01 12:14:01;;;;;;;15.27;13.70;;;11.40;96.30;;;;;;4928727;29;20420;-78
2021/05/01 12:16:27;;;;;;;14.60;13.10;;;11.20;96.30;;;;;;4923840;29;20416;-77
2021/05/01 12:18:54;;;;;;;18.23;14.27;;;11.10;96.30;;;;;;4937245;29;20423;-78
2021/05/01 12:21:22;;;;;;;15.90;13.90;;;11.00;96.30;;;;;;4936291;29;20542;-78
2021/05/01 12:23:50;;;;;;;17.13;14.73;;;11.00;96.30;;;;;;4936441;29;20439;-83
2021/05/01 12:26:36;;;;;;;21.70;14.97;;;11.00;96.30;;;;;;4937165;29;20411;-82
2021/05/01 12:29:17;;;;;;;16.73;14.07;;;11.10;96.30;;;;;;4917951;29;20798;-82
2021/05/01 12:31:50;;;;;;;15.17;13.57;;;11.20;96.30;;;;;;4925956;29;20991;-82
2021/05/01 12:34:17;;;;;;;15.83;14.00;;;11.10;96.30;;;;;;4929831;29;20423;-81
2021/05/01 12:36:48;;;;;;;17.13;15.17;;;11.00;96.30;;;;;;4914932;29;20518;-81
2021/05/01 12:39:15;;;;;;;18.23;15.20;;;11.00;96.30;;;;;;4917543;29;20488;-82
2021/05/01 12:41:42;;;;;;;15.00;13.53;;;11.00;96.30;;;;;;4928647;29;20970;-82
2021/05/01 12:44:28;;;;;;;18.77;15.17;;;10.90;96.30;;;;;;4940976;29;20446;-83
2021/05/01 12:46:54;;;;;;;14.77;13.10;;;11.00;96.30;;;;;;4932682;29;20514;-84
2021/05/01 12:49:22;;;;;;;16.97;14.37;;;10.90;96.30;;;;;;4935330;29;20460;-83
2021/05/01 12:52:06;;;;;;;15.47;13.87;;;11.10;96.30;;;;;;4920674;29;20239;-84
2021/05/01 12:54:39;;;;;;;15.47;13.80;;;11.30;96.30;;;;;;4920943;29;20431;-84
2021/05/01 12:57:07;;;;;;;17.07;13.67;;;11.40;96.30;;;;;;4938109;29;20419;-84
2021/05/01 12:59:36;;;;;;;17.83;13.30;;;11.40;96.30;;;;;;4938552;29;20500;-83
2021/05/01 13:02:02;;;;;;;15.30;13.80;;;11.50;96.30;;;;;;4929034;29;20471;-83
2021/05/01 13:04:35;;;;;;;15.10;13.60;;;11.50;96.30;;;;;;4941499;29;20423;-84
2021/05/01 13:07:08;;;;;;;14.40;12.87;;;11.60;96.30;;;;;;4944276;29;20180;-83
2021/05/01 13:09:43;;;;;;;16.03;13.50;;;11.60;96.30;;;;;;4927034;29;20428;-83
2021/05/01 13:12:23;;;;;;;16.13;12.93;;;11.60;96.30;;;;;;4937667;29;20462;-83
2021/05/01 13:14:48;;;;;;;16.00;12.23;;;11.60;96.30;;;;;;4943341;29;20430;-83
2021/05/01 13:17:15;;;;;;;13.90;12.50;;;11.50;96.30;;;;;;4942973;29;20419;-83
2021/05/01 13:22:20;;;;;;;15.50;13.77;;;11.40;96.30;;;;;;4860136;29;20555;-80
2021/05/01 13:24:58;;;;;;;14.80;13.30;;;11.60;96.30;;;;;;4861591;29;20798;-80
2021/05/01 13:27:34;;;;;;;14.50;13.00;;;11.60;96.30;;;;;;4862450;29;20962;-82
2021/05/01 13:30:05;;;;;;;15.13;13.27;;;11.70;96.30;;;;;;4864726;29;20480;-80
2021/05/01 13:32:31;;;;;;;14.27;12.77;;;11.80;96.30;;;;;;4896532;29;20473;-81
2021/05/01 13:34:58;;;;;;;14.23;12.73;;;11.90;96.30;;;;;;4883253;29;20485;-82
2021/05/01 13:37:24;;;;;;;14.50;12.90;;;11.90;96.30;;;;;;4882775;29;20185;-80
2021/05/01 13:39:50;;;;;;;13.37;12.00;;;12.20;96.30;;;;;;4895994;29;20417;-80
2021/05/01 13:42:16;;;;;;;13.17;11.77;;;12.00;96.30;;;;;;4889127;29;20860;-80
2021/05/01 13:44:50;;;;;;;13.73;12.33;;;12.20;96.30;;;;;;4881668;29;20188;-79
2021/05/01 13:47:34;;;;;;;13.53;12.13;;;12.30;96.30;;;;;;4881500;29;20421;-79
2021/05/01 13:49:59;;;;;;;14.33;12.90;;;12.70;96.30;;;;;;4880867;29;20426;-80
2021/05/01 13:52:40;;;;;;;12.27;11.07;;;12.70;96.30;;;;;;4882368;29;20468;-77
2021/05/01 13:55:26;;;;;;;12.07;10.53;;;12.50;94.30;;;;;;4899010;29;20176;-80
2021/05/01 13:58:05;;;;;;;12.70;11.30;;;12.20;95.10;;;;;;4878360;29;20418;-79
2021/05/01 14:00:33;;;;;;;12.40;10.30;;;12.00;95.50;;;;;;4881663;29;20434;-80
2021/05/01 14:03:01;;;;;;;12.40;11.17;;;11.80;96.30;;;;;;4879074;29;20430;-80
2021/05/01 14:05:28;;;;;;;12.23;10.97;;;11.60;96.30;;;;;;4882822;29;21132;-79
2021/05/01 14:07:58;;;;;;;12.50;11.20;;;11.50;96.30;;;;;;4879969;29;20433;-80
2021/05/01 14:10:27;;;;;;;13.27;11.30;;;11.40;96.30;;;;;;4883336;29;20452;-79
2021/05/01 14:12:54;;;;;;;12.90;11.70;;;11.40;96.30;;;;;;4889026;29;20440;-81
2021/05/01 14:18:04;;;;;;;12.77;10.00;;;11.40;96.30;;;;;;5142850;23;20495;-73
2021/05/01 14:20:30;;;;;;;11.57;10.47;;;11.50;96.30;;;;;;4894363;29;20452;-73
2021/05/01 14:22:56;;;;;;;11.80;10.63;;;11.80;96.30;;;;;;4898482;29;20441;-73
2021/05/01 14:25:21;;;;;;;14.00;11.13;;;12.20;96.30;;;;;;4898906;29;20420;-73
2021/05/01 14:27:51;;;;;;;11.77;10.53;;;12.30;96.10;;;;;;4898116;29;20212;-73
2021/05/01 14:30:39;;;;;;;10.40;9.40;;;12.30;95.30;;;;;;4897529;29;20590;-74
2021/05/01 14:33:06;;;;;;;11.10;9.60;;;12.10;96.30;;;;;;4898762;29;20890;-73
2021/05/01 14:35:32;;;;;;;11.60;10.40;;;12.00;96.30;;;;;;4898040;29;20448;-74
2021/05/01 14:37:58;;;;;;;13.87;10.23;;;12.00;96.30;;;;;;4898109;29;20503;-73
2021/05/01 14:40:24;;;;;;;19.77;10.37;;;12.00;96.30;;;;;;4896811;29;20481;-73
2021/05/01 14:42:54;;;;;;;10.87;9.77;;;12.10;95.90;;;;;;4896409;29;20534;-73
2021/05/01 14:45:24;;;;;;;11.90;9.77;;;12.10;96.10;;;;;;4897069;29;20656;-73
2021/05/01 14:47:50;;;;;;;10.77;9.67;;;12.10;96.30;;;;;;4897755;29;20457;-73
2021/05/01 14:50:31;;;;;;;10.90;9.30;;;12.00;95.70;;;;;;4897706;29;21361;-73
2021/05/01 14:53:18;;;;;;;10.80;9.30;;;11.90;95.70;;;;;;4897206;29;20512;-73
2021/05/01 14:55:46;;;;;;;10.70;9.63;;;11.90;96.30;;;;;;4898543;29;20748;-73
2021/05/01 14:58:34;;;;;;;11.57;10.40;;;11.90;96.30;;;;;;4897679;29;21133;-73
2021/05/01 15:01:01;;;;;;;10.83;9.63;;;11.90;96.30;;;;;;4897648;29;20422;-72
2021/05/01 15:03:35;;;;;;;11.70;10.60;;;11.60;96.30;;;;;;4893661;29;20422;-73
2021/05/01 15:06:03;;;;;;;11.70;10.50;;;11.60;96.30;;;;;;4887727;29;20938;-73
2021/05/01 15:08:30;;;;;;;12.23;10.73;;;11.60;96.30;;;;;;4878934;29;20442;-73
2021/05/01 15:10:56;;;;;;;11.23;10.13;;;11.60;96.30;;;;;;4893802;29;20491;-73
2021/05/01 15:13:25;;;;;;;11.43;10.23;;;11.50;96.30;;;;;;4897541;29;20894;-73
2021/05/01 15:15:54;;;;;;;10.17;9.17;;;11.60;96.30;;;;;;4897781;29;20173;-73
2021/05/01 15:18:23;;;;;;;12.07;10.20;;;11.30;96.30;;;;;;4897049;29;20433;-73
2021/05/01 15:20:51;;;;;;;19.80;12.40;;;11.30;96.30;;;;;;4897665;29;20441;-74
2021/05/01 15:23:22;;;;;;;12.87;10.00;;;11.40;96.30;;;;;;4897763;29;20417;-73
2021/05/01 15:25:51;;;;;;;12.07;9.50;;;11.30;96.30;;;;;;4897550;29;20418;-73
2021/05/01 15:28:17;;;;;;;10.63;9.43;;;11.20;96.30;;;;;;4896533;29;20445;-72
2021/05/01 15:30:44;;;;;;;11.70;10.37;;;11.20;96.30;;;;;;4897171;29;20431;-73
2021/05/01 15:33:12;;;;;;;12.03;10.77;;;11.20;96.30;;;;;;4897346;29;20417;-73
2021/05/01 15:35:38;;;;;;;11.40;10.30;;;11.40;96.30;;;;;;4896752;29;21011;-73
2021/05/01 15:38:06;;;;;;;10.33;9.33;;;11.40;96.30;;;;;;4896165;29;20436;-73
2021/05/01 15:40:32;;;;;;;14.83;10.70;;;11.40;96.30;;;;;;4896903;29;20956;-73
2021/05/01 15:42:57;;;;;;;11.17;10.00;;;11.40;96.30;;;;;;4895905;29;20416;-74
2021/05/01 15:45:23;;;;;;;11.33;9.30;;;11.40;96.30;;;;;;4896051;29;20791;-73
2021/05/01 15:47:50;;;;;;;12.93;10.33;;;11.30;96.30;;;;;;4895859;29;20197;-74
2021/05/01 15:50:15;;;;;;;10.90;9.90;;;11.30;96.30;;;;;;4895929;29;20173;-73
2021/05/01 15:52:41;;;;;;;11.90;10.70;;;11.30;96.30;;;;;;4896681;29;20471;-73
2021/05/01 15:55:10;;;;;;;12.17;10.47;;;11.30;96.30;;;;;;4895541;29;20188;-74
2021/05/01 15:57:37;;;;;;;11.40;9.80;;;11.30;96.30;;;;;;4891799;29;20449;-73
2021/05/01 16:00:11;;;;;;;10.97;9.80;;;11.30;96.30;;;;;;4894037;29;20417;-74
2021/05/01 16:02:37;;;;;;;16.57;12.67;;;11.40;96.30;;;;;;4879791;29;20509;-74
2021/05/01 16:05:04;;;;;;;15.30;12.73;;;11.30;96.30;;;;;;4895691;29;20449;-75
2021/05/01 16:07:30;;;;;;;11.30;10.10;;;11.30;96.30;;;;;;4891336;29;20480;-73
2021/05/01 16:09:55;;;;;;;15.23;9.90;;;11.30;96.30;;;;;;4897029;29;20504;-73
2021/05/01 16:12:21;;;;;;;19.10;13.07;;;11.20;96.30;;;;;;4887600;29;20303;-73
2021/05/01 16:14:46;;;;;;;11.53;10.33;;;11.20;96.30;;;;;;4895763;29;20200;-74
2021/05/01 16:17:12;;;;;;;45.07;40.10;;;11.20;96.30;;;;;;4896403;29;20204;-73
2021/05/01 16:19:38;;;;;;;15.50;14.00;;;11.20;96.30;;;;;;4892023;29;20197;-73
2021/05/01 16:22:03;;;;;;;12.70;11.40;;;11.20;96.30;;;;;;4896688;29;20197;-73
2021/05/01 16:24:29;;;;;;;15.23;10.50;;;11.10;96.30;;;;;;4896511;29;20652;-74
2021/05/01 16:26:54;;;;;;;14.87;13.17;;;11.00;96.30;;;;;;4895618;29;20563;-74
2021/05/01 16:29:20;;;;;;;11.40;10.20;;;11.00;96.30;;;;;;4894987;29;20199;-73
2021/05/01 16:31:46;;;;;;;14.40;10.83;;;10.80;96.30;;;;;;4895932;29;20220;-74
2021/05/01 16:34:12;;;;;;;11.27;10.00;;;10.80;96.30;;;;;;4889670;29;20284;-73
2021/05/01 16:36:37;;;;;;;12.17;9.67;;;10.80;96.30;;;;;;4889202;29;20661;-73
2021/05/01 16:39:05;;;;;;;17.73;13.50;;;10.70;96.30;;;;;;4891596;29;20461;-75
2021/05/01 16:41:32;;;;;;;11.63;10.00;;;10.70;96.30;;;;;;4890201;29;20190;-74
2021/05/01 16:43:58;;;;;;;10.63;9.47;;;10.70;96.30;;;;;;4892868;29;20454;-74
2021/05/01 16:46:23;;;;;;;15.60;10.37;;;10.60;96.30;;;;;;4890721;29;20433;-74